sensor_id;sensor_type;location;lat;lon;timestamp;P1;durP1;ratioP1;P2;durP2;ratioP2
5791;SDS011;2922;53.482;10.006;2024-03-22T00:01:47;25.03;;;8.47;;
5791;SDS011;2922;53.482;10.006;2024-03-22T00:04:13;24.83;;;9.30;;
5791;SDS011;2922;53.482;10.006;2024-03-22T00:06:40;17.50;;;9.00;;
5791;SDS011;2922;53.482;10.006;2024-03-22T00:09:06;15.30;;;8.53;;
5791;SDS011;2922;53.482;10.006;2024-03-22T00:11:32;19.23;;;8.60;;
5791;SDS011;2922;53.482;10.006;2024-03-22T00:13:58;18.33;;;8.80;;
5791;SDS011;2922;53.482;10.006;2024-03-22T00:16:23;20.00;;;9.13;;
5791;SDS011;2922;53.482;10.006;2024-03-22T00:18:49;17.30;;;8.70;;
5791;SDS011;2922;53.482;10.006;2024-03-22T00:21:14;16.13;;;8.30;;
5791;SDS011;2922;53.482;10.006;2024-03-22T00:23:40;19.70;;;8.90;;
5791;SDS011;2922;53.482;10.006;2024-03-22T00:26:07;18.20;;;9.63;;
5791;SDS011;2922;53.482;10.006;2024-03-22T00:28:32;19.67;;;9.03;;
5791;SDS011;2922;53.482;10.006;2024-03-22T00:30:58;20.23;;;8.60;;
5791;SDS011;2922;53.482;10.006;2024-03-22T00:33:24;25.97;;;8.87;;
5791;SDS011;2922;53.482;10.006;2024-03-22T00:35:49;14.93;;;8.53;;
5791;SDS011;2922;53.482;10.006;2024-03-22T00:38:15;20.03;;;9.33;;
5791;SDS011;2922;53.482;10.006;2024-03-22T00:40:40;21.43;;;9.90;;
5791;SDS011;2922;53.482;10.006;2024-03-22T00:43:07;20.40;;;10.10;;
5791;SDS011;2922;53.482;10.006;2024-03-22T00:45:32;19.60;;;9.23;;
5791;SDS011;2922;53.482;10.006;2024-03-22T00:47:58;23.50;;;9.17;;
5791;SDS011;2922;53.482;10.006;2024-03-22T00:50:23;17.87;;;8.67;;
5791;SDS011;2922;53.482;10.006;2024-03-22T00:52:50;24.77;;;10.70;;
5791;SDS011;2922;53.482;10.006;2024-03-22T00:55:15;18.30;;;9.20;;
5791;SDS011;2922;53.482;10.006;2024-03-22T00:57:41;19.00;;;9.00;;
5791;SDS011;2922;53.482;10.006;2024-03-22T01:00:06;22.97;;;11.10;;
5791;SDS011;2922;53.482;10.006;2024-03-22T01:02:32;18.60;;;8.00;;
5791;SDS011;2922;53.482;10.006;2024-03-22T01:04:58;21.57;;;9.73;;
5791;SDS011;2922;53.482;10.006;2024-03-22T01:07:23;24.53;;;9.03;;
5791;SDS011;2922;53.482;10.006;2024-03-22T01:09:49;21.80;;;10.40;;
5791;SDS011;2922;53.482;10.006;2024-03-22T01:12:14;19.53;;;10.13;;
5791;SDS011;2922;53.482;10.006;2024-03-22T01:14:40;19.03;;;8.83;;
5791;SDS011;2922;53.482;10.006;2024-03-22T01:17:05;24.30;;;10.33;;
5791;SDS011;2922;53.482;10.006;2024-03-22T01:19:31;23.80;;;10.47;;
5791;SDS011;2922;53.482;10.006;2024-03-22T01:21:56;19.40;;;11.00;;
5791;SDS011;2922;53.482;10.006;2024-03-22T01:24:22;21.37;;;10.50;;
5791;SDS011;2922;53.482;10.006;2024-03-22T01:26:47;24.17;;;10.90;;
5791;SDS011;2922;53.482;10.006;2024-03-22T01:29:16;21.77;;;10.13;;
5791;SDS011;2922;53.482;10.006;2024-03-22T01:31:41;20.63;;;10.17;;
5791;SDS011;2922;53.482;10.006;2024-03-22T01:34:07;26.70;;;11.63;;
5791;SDS011;2922;53.482;10.006;2024-03-22T01:36:32;18.63;;;10.40;;
5791;SDS011;2922;53.482;10.006;2024-03-22T01:38:58;23.60;;;10.93;;
5791;SDS011;2922;53.482;10.006;2024-03-22T01:41:23;28.33;;;11.97;;
5791;SDS011;2922;53.482;10.006;2024-03-22T01:43:49;22.80;;;11.07;;
5791;SDS011;2922;53.482;10.006;2024-03-22T01:46:14;28.10;;;11.40;;
5791;SDS011;2922;53.482;10.006;2024-03-22T01:48:40;27.47;;;11.93;;
5791;SDS011;2922;53.482;10.006;2024-03-22T01:51:06;23.67;;;10.93;;
5791;SDS011;2922;53.482;10.006;2024-03-22T01:53:32;25.37;;;12.20;;
5791;SDS011;2922;53.482;10.006;2024-03-22T01:55:59;24.23;;;12.37;;
5791;SDS011;2922;53.482;10.006;2024-03-22T01:58:25;29.47;;;12.20;;
5791;SDS011;2922;53.482;10.006;2024-03-22T02:00:51;24.50;;;11.13;;
5791;SDS011;2922;53.482;10.006;2024-03-22T02:03:16;29.83;;;12.77;;
5791;SDS011;2922;53.482;10.006;2024-03-22T02:05:42;25.57;;;11.60;;
5791;SDS011;2922;53.482;10.006;2024-03-22T02:08:07;22.93;;;12.63;;
5791;SDS011;2922;53.482;10.006;2024-03-22T02:10:33;24.73;;;10.70;;
5791;SDS011;2922;53.482;10.006;2024-03-22T02:12:58;26.17;;;12.00;;
5791;SDS011;2922;53.482;10.006;2024-03-22T02:15:24;28.50;;;13.03;;
5791;SDS011;2922;53.482;10.006;2024-03-22T02:17:49;26.83;;;12.20;;
5791;SDS011;2922;53.482;10.006;2024-03-22T02:20:15;25.77;;;12.87;;
5791;SDS011;2922;53.482;10.006;2024-03-22T02:22:40;35.33;;;14.13;;
5791;SDS011;2922;53.482;10.006;2024-03-22T02:25:06;24.70;;;13.10;;
5791;SDS011;2922;53.482;10.006;2024-03-22T02:27:33;28.77;;;13.50;;
5791;SDS011;2922;53.482;10.006;2024-03-22T02:29:58;28.87;;;13.27;;
5791;SDS011;2922;53.482;10.006;2024-03-22T02:32:24;30.23;;;14.00;;
5791;SDS011;2922;53.482;10.006;2024-03-22T02:34:49;34.50;;;14.40;;
5791;SDS011;2922;53.482;10.006;2024-03-22T02:37:15;35.23;;;15.60;;
5791;SDS011;2922;53.482;10.006;2024-03-22T02:39:40;32.20;;;14.47;;
5791;SDS011;2922;53.482;10.006;2024-03-22T02:42:06;31.50;;;15.13;;
5791;SDS011;2922;53.482;10.006;2024-03-22T02:44:32;31.50;;;14.50;;
5791;SDS011;2922;53.482;10.006;2024-03-22T02:46:57;33.73;;;15.40;;
5791;SDS011;2922;53.482;10.006;2024-03-22T02:49:24;39.70;;;16.10;;
5791;SDS011;2922;53.482;10.006;2024-03-22T02:51:50;33.47;;;14.10;;
5791;SDS011;2922;53.482;10.006;2024-03-22T02:54:15;38.10;;;16.23;;
5791;SDS011;2922;53.482;10.006;2024-03-22T02:56:41;32.57;;;15.83;;
5791;SDS011;2922;53.482;10.006;2024-03-22T02:59:06;34.27;;;15.80;;
5791;SDS011;2922;53.482;10.006;2024-03-22T03:01:32;37.57;;;16.20;;
5791;SDS011;2922;53.482;10.006;2024-03-22T03:03:57;36.47;;;16.80;;
5791;SDS011;2922;53.482;10.006;2024-03-22T03:06:23;36.33;;;17.03;;
5791;SDS011;2922;53.482;10.006;2024-03-22T03:08:49;39.20;;;16.00;;
5791;SDS011;2922;53.482;10.006;2024-03-22T03:11:15;41.07;;;19.37;;
5791;SDS011;2922;53.482;10.006;2024-03-22T03:13:40;36.77;;;16.53;;
5791;SDS011;2922;53.482;10.006;2024-03-22T03:16:06;37.87;;;17.63;;
5791;SDS011;2922;53.482;10.006;2024-03-22T03:18:31;45.30;;;18.30;;
5791;SDS011;2922;53.482;10.006;2024-03-22T03:20:56;41.17;;;17.83;;
5791;SDS011;2922;53.482;10.006;2024-03-22T03:23:22;36.77;;;17.50;;
5791;SDS011;2922;53.482;10.006;2024-03-22T03:25:47;44.40;;;18.27;;
5791;SDS011;2922;53.482;10.006;2024-03-22T03:28:13;40.97;;;18.87;;
5791;SDS011;2922;53.482;10.006;2024-03-22T03:30:39;38.40;;;18.20;;
5791;SDS011;2922;53.482;10.006;2024-03-22T03:33:04;40.53;;;17.50;;
5791;SDS011;2922;53.482;10.006;2024-03-22T03:35:30;38.37;;;19.20;;
5791;SDS011;2922;53.482;10.006;2024-03-22T03:37:56;43.90;;;18.40;;
5791;SDS011;2922;53.482;10.006;2024-03-22T03:40:21;38.07;;;17.50;;
5791;SDS011;2922;53.482;10.006;2024-03-22T03:42:49;40.27;;;17.90;;
5791;SDS011;2922;53.482;10.006;2024-03-22T03:45:15;43.70;;;19.00;;
5791;SDS011;2922;53.482;10.006;2024-03-22T03:47:41;40.63;;;17.80;;
5791;SDS011;2922;53.482;10.006;2024-03-22T03:50:06;43.83;;;17.97;;
5791;SDS011;2922;53.482;10.006;2024-03-22T03:52:32;43.17;;;17.33;;
5791;SDS011;2922;53.482;10.006;2024-03-22T03:54:57;46.80;;;19.43;;
5791;SDS011;2922;53.482;10.006;2024-03-22T03:57:23;41.53;;;19.67;;
5791;SDS011;2922;53.482;10.006;2024-03-22T03:59:48;38.90;;;16.80;;
5791;SDS011;2922;53.482;10.006;2024-03-22T04:02:14;40.40;;;18.03;;
5791;SDS011;2922;53.482;10.006;2024-03-22T04:04:40;44.07;;;18.70;;
5791;SDS011;2922;53.482;10.006;2024-03-22T04:07:05;46.40;;;20.90;;
5791;SDS011;2922;53.482;10.006;2024-03-22T04:09:31;42.97;;;19.67;;
5791;SDS011;2922;53.482;10.006;2024-03-22T04:11:57;40.20;;;19.40;;
5791;SDS011;2922;53.482;10.006;2024-03-22T04:14:24;50.50;;;21.40;;
5791;SDS011;2922;53.482;10.006;2024-03-22T04:16:50;41.87;;;19.37;;
5791;SDS011;2922;53.482;10.006;2024-03-22T04:19:15;45.50;;;20.93;;
5791;SDS011;2922;53.482;10.006;2024-03-22T04:21:41;46.67;;;19.67;;
5791;SDS011;2922;53.482;10.006;2024-03-22T04:24:06;45.77;;;19.27;;
5791;SDS011;2922;53.482;10.006;2024-03-22T04:26:32;48.87;;;19.77;;
5791;SDS011;2922;53.482;10.006;2024-03-22T04:28:57;47.23;;;19.83;;
5791;SDS011;2922;53.482;10.006;2024-03-22T04:31:23;44.27;;;18.80;;
5791;SDS011;2922;53.482;10.006;2024-03-22T04:33:48;47.20;;;20.77;;
5791;SDS011;2922;53.482;10.006;2024-03-22T04:36:14;43.80;;;19.70;;
5791;SDS011;2922;53.482;10.006;2024-03-22T04:38:40;47.27;;;21.13;;
5791;SDS011;2922;53.482;10.006;2024-03-22T04:41:06;39.17;;;18.37;;
5791;SDS011;2922;53.482;10.006;2024-03-22T04:43:31;49.00;;;21.37;;
5791;SDS011;2922;53.482;10.006;2024-03-22T04:45:57;41.27;;;20.00;;
5791;SDS011;2922;53.482;10.006;2024-03-22T04:48:23;44.17;;;20.60;;
5791;SDS011;2922;53.482;10.006;2024-03-22T04:50:49;45.67;;;19.50;;
5791;SDS011;2922;53.482;10.006;2024-03-22T04:53:15;45.97;;;20.07;;
5791;SDS011;2922;53.482;10.006;2024-03-22T04:55:45;41.10;;;18.27;;
5791;SDS011;2922;53.482;10.006;2024-03-22T05:00:43;44.10;;;20.17;;
5791;SDS011;2922;53.482;10.006;2024-03-22T05:03:09;50.67;;;20.33;;
5791;SDS011;2922;53.482;10.006;2024-03-22T05:05:35;42.07;;;18.90;;
5791;SDS011;2922;53.482;10.006;2024-03-22T05:08:00;40.70;;;19.00;;
5791;SDS011;2922;53.482;10.006;2024-03-22T05:10:26;51.73;;;21.43;;
5791;SDS011;2922;53.482;10.006;2024-03-22T05:12:53;45.63;;;20.73;;
5791;SDS011;2922;53.482;10.006;2024-03-22T05:15:19;53.77;;;20.90;;
5791;SDS011;2922;53.482;10.006;2024-03-22T05:17:45;52.27;;;20.83;;
5791;SDS011;2922;53.482;10.006;2024-03-22T05:20:10;56.77;;;22.17;;
5791;SDS011;2922;53.482;10.006;2024-03-22T05:22:37;48.90;;;19.80;;
5791;SDS011;2922;53.482;10.006;2024-03-22T05:25:02;50.17;;;22.40;;
5791;SDS011;2922;53.482;10.006;2024-03-22T05:27:30;45.10;;;20.17;;
5791;SDS011;2922;53.482;10.006;2024-03-22T05:29:57;45.27;;;21.30;;
5791;SDS011;2922;53.482;10.006;2024-03-22T05:32:23;49.43;;;21.20;;
5791;SDS011;2922;53.482;10.006;2024-03-22T05:34:49;47.20;;;20.77;;
5791;SDS011;2922;53.482;10.006;2024-03-22T05:37:15;49.70;;;22.20;;
5791;SDS011;2922;53.482;10.006;2024-03-22T05:39:40;48.33;;;20.60;;
5791;SDS011;2922;53.482;10.006;2024-03-22T05:42:06;66.27;;;24.43;;
5791;SDS011;2922;53.482;10.006;2024-03-22T05:44:32;78.53;;;24.10;;
5791;SDS011;2922;53.482;10.006;2024-03-22T05:46:57;55.50;;;22.90;;
5791;SDS011;2922;53.482;10.006;2024-03-22T05:49:23;55.53;;;24.33;;
5791;SDS011;2922;53.482;10.006;2024-03-22T05:51:48;53.40;;;21.13;;
5791;SDS011;2922;53.482;10.006;2024-03-22T05:54:14;51.63;;;22.07;;
5791;SDS011;2922;53.482;10.006;2024-03-22T05:56:39;52.47;;;23.17;;
5791;SDS011;2922;53.482;10.006;2024-03-22T05:59:05;56.50;;;21.67;;
5791;SDS011;2922;53.482;10.006;2024-03-22T06:01:31;62.13;;;24.17;;
5791;SDS011;2922;53.482;10.006;2024-03-22T06:03:57;52.27;;;22.00;;
5791;SDS011;2922;53.482;10.006;2024-03-22T06:06:23;57.40;;;24.50;;
5791;SDS011;2922;53.482;10.006;2024-03-22T06:08:51;54.23;;;23.17;;
5791;SDS011;2922;53.482;10.006;2024-03-22T06:11:18;53.37;;;22.30;;
5791;SDS011;2922;53.482;10.006;2024-03-22T06:13:44;53.47;;;22.60;;
5791;SDS011;2922;53.482;10.006;2024-03-22T06:16:10;63.70;;;25.37;;
5791;SDS011;2922;53.482;10.006;2024-03-22T06:18:36;59.13;;;25.07;;
5791;SDS011;2922;53.482;10.006;2024-03-22T06:21:01;53.60;;;22.37;;
5791;SDS011;2922;53.482;10.006;2024-03-22T06:23:28;60.90;;;23.90;;
5791;SDS011;2922;53.482;10.006;2024-03-22T06:25:54;59.83;;;25.70;;
5791;SDS011;2922;53.482;10.006;2024-03-22T06:28:22;55.07;;;23.53;;
5791;SDS011;2922;53.482;10.006;2024-03-22T06:30:47;62.20;;;25.17;;
5791;SDS011;2922;53.482;10.006;2024-03-22T06:33:13;61.87;;;24.83;;
5791;SDS011;2922;53.482;10.006;2024-03-22T06:35:39;54.47;;;23.63;;
5791;SDS011;2922;53.482;10.006;2024-03-22T06:38:05;57.93;;;22.47;;
5791;SDS011;2922;53.482;10.006;2024-03-22T06:40:31;53.40;;;22.40;;
5791;SDS011;2922;53.482;10.006;2024-03-22T06:42:57;59.03;;;24.77;;
5791;SDS011;2922;53.482;10.006;2024-03-22T06:45:23;60.47;;;25.40;;
5791;SDS011;2922;53.482;10.006;2024-03-22T06:47:49;61.80;;;25.67;;
5791;SDS011;2922;53.482;10.006;2024-03-22T06:50:14;58.13;;;24.27;;
5791;SDS011;2922;53.482;10.006;2024-03-22T06:52:42;55.70;;;23.67;;
5791;SDS011;2922;53.482;10.006;2024-03-22T06:55:08;58.10;;;24.10;;
5791;SDS011;2922;53.482;10.006;2024-03-22T06:57:33;62.23;;;25.60;;
5791;SDS011;2922;53.482;10.006;2024-03-22T06:59:59;58.90;;;25.57;;
5791;SDS011;2922;53.482;10.006;2024-03-22T07:02:25;53.50;;;23.70;;
5791;SDS011;2922;53.482;10.006;2024-03-22T07:04:51;60.77;;;26.40;;
5791;SDS011;2922;53.482;10.006;2024-03-22T07:07:17;52.53;;;23.17;;
5791;SDS011;2922;53.482;10.006;2024-03-22T07:09:43;67.30;;;25.43;;
5791;SDS011;2922;53.482;10.006;2024-03-22T07:12:08;56.77;;;24.50;;
5791;SDS011;2922;53.482;10.006;2024-03-22T07:14:34;64.57;;;26.13;;
5791;SDS011;2922;53.482;10.006;2024-03-22T07:17:00;56.27;;;25.17;;
5791;SDS011;2922;53.482;10.006;2024-03-22T07:19:25;66.73;;;27.87;;
5791;SDS011;2922;53.482;10.006;2024-03-22T07:21:52;67.27;;;26.73;;
5791;SDS011;2922;53.482;10.006;2024-03-22T07:24:18;55.23;;;23.83;;
5791;SDS011;2922;53.482;10.006;2024-03-22T07:26:43;59.10;;;25.60;;
5791;SDS011;2922;53.482;10.006;2024-03-22T07:29:09;64.43;;;25.87;;
5791;SDS011;2922;53.482;10.006;2024-03-22T07:31:34;60.70;;;26.30;;
5791;SDS011;2922;53.482;10.006;2024-03-22T07:34:00;58.03;;;26.00;;
5791;SDS011;2922;53.482;10.006;2024-03-22T07:36:25;57.53;;;24.53;;
5791;SDS011;2922;53.482;10.006;2024-03-22T07:38:51;61.43;;;25.73;;
5791;SDS011;2922;53.482;10.006;2024-03-22T07:41:17;59.00;;;25.47;;
5791;SDS011;2922;53.482;10.006;2024-03-22T07:43:43;60.23;;;24.93;;
5791;SDS011;2922;53.482;10.006;2024-03-22T07:46:09;64.23;;;27.77;;
5791;SDS011;2922;53.482;10.006;2024-03-22T07:48:35;60.03;;;25.83;;
5791;SDS011;2922;53.482;10.006;2024-03-22T07:51:01;66.87;;;26.00;;
5791;SDS011;2922;53.482;10.006;2024-03-22T07:53:26;65.23;;;28.03;;
5791;SDS011;2922;53.482;10.006;2024-03-22T07:55:52;65.07;;;26.70;;
5791;SDS011;2922;53.482;10.006;2024-03-22T07:58:18;58.73;;;24.63;;
5791;SDS011;2922;53.482;10.006;2024-03-22T08:00:44;60.07;;;24.50;;
5791;SDS011;2922;53.482;10.006;2024-03-22T08:03:16;67.57;;;25.90;;
5791;SDS011;2922;53.482;10.006;2024-03-22T08:05:42;59.40;;;25.30;;
5791;SDS011;2922;53.482;10.006;2024-03-22T08:08:07;58.20;;;24.40;;
5791;SDS011;2922;53.482;10.006;2024-03-22T08:10:33;63.83;;;26.37;;
5791;SDS011;2922;53.482;10.006;2024-03-22T08:12:59;61.90;;;24.47;;
5791;SDS011;2922;53.482;10.006;2024-03-22T08:15:28;74.07;;;26.60;;
5791;SDS011;2922;53.482;10.006;2024-03-22T08:17:55;66.40;;;25.80;;
5791;SDS011;2922;53.482;10.006;2024-03-22T08:20:22;58.20;;;25.57;;
5791;SDS011;2922;53.482;10.006;2024-03-22T08:22:48;76.47;;;27.43;;
5791;SDS011;2922;53.482;10.006;2024-03-22T08:25:14;61.30;;;24.60;;
5791;SDS011;2922;53.482;10.006;2024-03-22T08:27:42;70.07;;;25.87;;
5791;SDS011;2922;53.482;10.006;2024-03-22T08:30:08;60.37;;;25.83;;
5791;SDS011;2922;53.482;10.006;2024-03-22T08:32:35;64.60;;;26.23;;
5791;SDS011;2922;53.482;10.006;2024-03-22T08:35:00;63.47;;;25.17;;
5791;SDS011;2922;53.482;10.006;2024-03-22T08:37:26;59.50;;;24.00;;
5791;SDS011;2922;53.482;10.006;2024-03-22T08:39:51;59.73;;;25.37;;
5791;SDS011;2922;53.482;10.006;2024-03-22T08:42:17;64.90;;;23.60;;
5791;SDS011;2922;53.482;10.006;2024-03-22T08:44:42;67.27;;;26.57;;
5791;SDS011;2922;53.482;10.006;2024-03-22T08:47:08;59.70;;;25.40;;
5791;SDS011;2922;53.482;10.006;2024-03-22T08:49:35;70.33;;;25.10;;
5791;SDS011;2922;53.482;10.006;2024-03-22T08:52:01;68.17;;;25.30;;
5791;SDS011;2922;53.482;10.006;2024-03-22T08:54:27;72.33;;;25.03;;
5791;SDS011;2922;53.482;10.006;2024-03-22T08:56:53;67.13;;;26.93;;
5791;SDS011;2922;53.482;10.006;2024-03-22T08:59:18;67.47;;;26.87;;
5791;SDS011;2922;53.482;10.006;2024-03-22T09:01:44;65.73;;;24.90;;
5791;SDS011;2922;53.482;10.006;2024-03-22T09:04:09;72.60;;;25.23;;
5791;SDS011;2922;53.482;10.006;2024-03-22T09:06:35;58.03;;;22.90;;
5791;SDS011;2922;53.482;10.006;2024-03-22T09:09:01;59.97;;;24.43;;
5791;SDS011;2922;53.482;10.006;2024-03-22T09:11:28;60.93;;;24.83;;
5791;SDS011;2922;53.482;10.006;2024-03-22T09:13:55;57.53;;;23.50;;
5791;SDS011;2922;53.482;10.006;2024-03-22T09:16:20;57.50;;;23.70;;
5791;SDS011;2922;53.482;10.006;2024-03-22T09:18:46;72.00;;;24.53;;
5791;SDS011;2922;53.482;10.006;2024-03-22T09:21:11;66.07;;;23.10;;
5791;SDS011;2922;53.482;10.006;2024-03-22T09:23:37;58.23;;;23.70;;
5791;SDS011;2922;53.482;10.006;2024-03-22T09:26:03;60.70;;;24.93;;
5791;SDS011;2922;53.482;10.006;2024-03-22T09:28:29;65.17;;;24.23;;
5791;SDS011;2922;53.482;10.006;2024-03-22T09:30:54;61.30;;;25.53;;
5791;SDS011;2922;53.482;10.006;2024-03-22T09:33:20;61.27;;;25.93;;
5791;SDS011;2922;53.482;10.006;2024-03-22T09:35:45;59.77;;;23.83;;
5791;SDS011;2922;53.482;10.006;2024-03-22T09:38:11;60.20;;;23.90;;
5791;SDS011;2922;53.482;10.006;2024-03-22T09:40:39;57.53;;;26.20;;
5791;SDS011;2922;53.482;10.006;2024-03-22T09:43:05;70.80;;;26.40;;
5791;SDS011;2922;53.482;10.006;2024-03-22T09:45:33;60.13;;;24.23;;
5791;SDS011;2922;53.482;10.006;2024-03-22T09:47:58;58.37;;;23.10;;
5791;SDS011;2922;53.482;10.006;2024-03-22T09:50:25;58.47;;;23.70;;
5791;SDS011;2922;53.482;10.006;2024-03-22T09:52:54;57.93;;;21.47;;
5791;SDS011;2922;53.482;10.006;2024-03-22T09:55:22;56.53;;;23.10;;
5791;SDS011;2922;53.482;10.006;2024-03-22T09:57:48;55.30;;;23.13;;
5791;SDS011;2922;53.482;10.006;2024-03-22T10:00:19;49.37;;;20.13;;
5791;SDS011;2922;53.482;10.006;2024-03-22T10:02:46;45.47;;;19.87;;
5791;SDS011;2922;53.482;10.006;2024-03-22T10:05:13;46.57;;;19.77;;
5791;SDS011;2922;53.482;10.006;2024-03-22T10:07:39;47.30;;;20.03;;
5791;SDS011;2922;53.482;10.006;2024-03-22T10:10:05;48.93;;;20.50;;
5791;SDS011;2922;53.482;10.006;2024-03-22T10:12:32;50.37;;;21.13;;
5791;SDS011;2922;53.482;10.006;2024-03-22T10:14:58;42.40;;;19.60;;
5791;SDS011;2922;53.482;10.006;2024-03-22T10:17:25;46.90;;;20.83;;
5791;SDS011;2922;53.482;10.006;2024-03-22T10:19:51;48.17;;;19.00;;
5791;SDS011;2922;53.482;10.006;2024-03-22T10:22:17;44.97;;;19.37;;
5791;SDS011;2922;53.482;10.006;2024-03-22T10:24:43;45.00;;;19.67;;
5791;SDS011;2922;53.482;10.006;2024-03-22T10:27:09;44.67;;;18.77;;
5791;SDS011;2922;53.482;10.006;2024-03-22T10:29:35;47.43;;;19.10;;
5791;SDS011;2922;53.482;10.006;2024-03-22T10:32:01;44.43;;;19.00;;
5791;SDS011;2922;53.482;10.006;2024-03-22T10:34:28;40.63;;;18.20;;
5791;SDS011;2922;53.482;10.006;2024-03-22T10:36:57;42.13;;;18.73;;
5791;SDS011;2922;53.482;10.006;2024-03-22T10:39:25;37.47;;;16.50;;
5791;SDS011;2922;53.482;10.006;2024-03-22T10:41:52;44.97;;;18.53;;
5791;SDS011;2922;53.482;10.006;2024-03-22T10:44:18;38.77;;;17.77;;
5791;SDS011;2922;53.482;10.006;2024-03-22T10:46:44;45.03;;;18.47;;
5791;SDS011;2922;53.482;10.006;2024-03-22T10:49:20;46.93;;;19.53;;
5791;SDS011;2922;53.482;10.006;2024-03-22T10:51:48;32.03;;;15.60;;
5791;SDS011;2922;53.482;10.006;2024-03-22T10:54:19;34.20;;;15.03;;
5791;SDS011;2922;53.482;10.006;2024-03-22T10:56:51;33.53;;;13.60;;
5791;SDS011;2922;53.482;10.006;2024-03-22T10:59:21;30.20;;;12.90;;
5791;SDS011;2922;53.482;10.006;2024-03-22T11:01:48;67.67;;;13.77;;
5791;SDS011;2922;53.482;10.006;2024-03-22T11:04:17;32.90;;;12.47;;
5791;SDS011;2922;53.482;10.006;2024-03-22T11:06:48;32.00;;;13.43;;
5791;SDS011;2922;53.482;10.006;2024-03-22T11:09:21;28.20;;;12.53;;
5791;SDS011;2922;53.482;10.006;2024-03-22T11:11:47;33.40;;;13.93;;
5791;SDS011;2922;53.482;10.006;2024-03-22T11:14:13;33.07;;;13.60;;
5791;SDS011;2922;53.482;10.006;2024-03-22T11:16:42;32.73;;;12.30;;
5791;SDS011;2922;53.482;10.006;2024-03-22T11:19:09;31.40;;;13.97;;
5791;SDS011;2922;53.482;10.006;2024-03-22T11:21:34;31.50;;;13.60;;
5791;SDS011;2922;53.482;10.006;2024-03-22T11:24:00;29.63;;;13.40;;
5791;SDS011;2922;53.482;10.006;2024-03-22T11:26:26;24.00;;;11.20;;
5791;SDS011;2922;53.482;10.006;2024-03-22T11:28:52;31.47;;;12.23;;
5791;SDS011;2922;53.482;10.006;2024-03-22T11:31:18;28.67;;;12.50;;
5791;SDS011;2922;53.482;10.006;2024-03-22T11:33:46;30.00;;;13.20;;
5791;SDS011;2922;53.482;10.006;2024-03-22T11:36:12;30.57;;;14.00;;
5791;SDS011;2922;53.482;10.006;2024-03-22T11:38:39;29.83;;;13.23;;
5791;SDS011;2922;53.482;10.006;2024-03-22T11:41:04;25.67;;;11.70;;
5791;SDS011;2922;53.482;10.006;2024-03-22T11:43:30;31.13;;;15.40;;
5791;SDS011;2922;53.482;10.006;2024-03-22T11:45:56;27.20;;;13.43;;
5791;SDS011;2922;53.482;10.006;2024-03-22T11:48:22;26.10;;;12.37;;
5791;SDS011;2922;53.482;10.006;2024-03-22T11:50:48;31.30;;;11.37;;
5791;SDS011;2922;53.482;10.006;2024-03-22T11:53:18;27.10;;;12.60;;
5791;SDS011;2922;53.482;10.006;2024-03-22T11:55:44;24.70;;;9.97;;
5791;SDS011;2922;53.482;10.006;2024-03-22T11:58:10;22.33;;;10.77;;
5791;SDS011;2922;53.482;10.006;2024-03-22T12:00:36;23.10;;;10.57;;
5791;SDS011;2922;53.482;10.006;2024-03-22T12:03:03;26.53;;;9.57;;
5791;SDS011;2922;53.482;10.006;2024-03-22T12:05:32;26.87;;;10.07;;
5791;SDS011;2922;53.482;10.006;2024-03-22T12:07:57;26.20;;;11.57;;
5791;SDS011;2922;53.482;10.006;2024-03-22T12:10:23;20.57;;;10.27;;
5791;SDS011;2922;53.482;10.006;2024-03-22T12:12:48;18.73;;;8.63;;
5791;SDS011;2922;53.482;10.006;2024-03-22T12:15:14;16.33;;;8.97;;
5791;SDS011;2922;53.482;10.006;2024-03-22T12:17:40;16.03;;;8.10;;
5791;SDS011;2922;53.482;10.006;2024-03-22T12:20:08;17.57;;;7.97;;
5791;SDS011;2922;53.482;10.006;2024-03-22T12:25:02;15.67;;;7.80;;
5791;SDS011;2922;53.482;10.006;2024-03-22T12:27:29;16.37;;;9.00;;
5791;SDS011;2922;53.482;10.006;2024-03-22T12:29:55;15.73;;;7.97;;
5791;SDS011;2922;53.482;10.006;2024-03-22T12:32:20;18.23;;;8.10;;
5791;SDS011;2922;53.482;10.006;2024-03-22T12:34:46;17.90;;;8.70;;
5791;SDS011;2922;53.482;10.006;2024-03-22T12:37:11;18.57;;;7.87;;
5791;SDS011;2922;53.482;10.006;2024-03-22T12:39:37;17.27;;;7.03;;
5791;SDS011;2922;53.482;10.006;2024-03-22T12:42:02;14.10;;;7.23;;
5791;SDS011;2922;53.482;10.006;2024-03-22T12:44:28;17.57;;;8.40;;
5791;SDS011;2922;53.482;10.006;2024-03-22T12:46:54;17.20;;;7.50;;
5791;SDS011;2922;53.482;10.006;2024-03-22T12:49:20;13.17;;;6.70;;
5791;SDS011;2922;53.482;10.006;2024-03-22T12:51:45;12.67;;;6.90;;
5791;SDS011;2922;53.482;10.006;2024-03-22T12:54:11;12.73;;;5.53;;
5791;SDS011;2922;53.482;10.006;2024-03-22T12:56:39;12.30;;;7.60;;
5791;SDS011;2922;53.482;10.006;2024-03-22T12:59:05;16.00;;;8.20;;
5791;SDS011;2922;53.482;10.006;2024-03-22T13:01:32;12.60;;;6.80;;
5791;SDS011;2922;53.482;10.006;2024-03-22T13:03:58;23.23;;;9.70;;
5791;SDS011;2922;53.482;10.006;2024-03-22T13:06:23;14.90;;;7.87;;
5791;SDS011;2922;53.482;10.006;2024-03-22T13:08:49;13.17;;;7.13;;
5791;SDS011;2922;53.482;10.006;2024-03-22T13:11:15;12.87;;;6.83;;
5791;SDS011;2922;53.482;10.006;2024-03-22T13:13:42;11.17;;;6.27;;
5791;SDS011;2922;53.482;10.006;2024-03-22T13:16:08;11.40;;;6.00;;
5791;SDS011;2922;53.482;10.006;2024-03-22T13:18:36;17.23;;;10.23;;
5791;SDS011;2922;53.482;10.006;2024-03-22T13:21:02;27.83;;;7.20;;
5791;SDS011;2922;53.482;10.006;2024-03-22T13:23:30;23.07;;;13.73;;
5791;SDS011;2922;53.482;10.006;2024-03-22T13:25:55;24.07;;;13.43;;
5791;SDS011;2922;53.482;10.006;2024-03-22T13:28:23;22.80;;;11.53;;
5791;SDS011;2922;53.482;10.006;2024-03-22T13:30:49;14.43;;;8.77;;
5791;SDS011;2922;53.482;10.006;2024-03-22T13:33:23;12.67;;;7.27;;
5791;SDS011;2922;53.482;10.006;2024-03-22T13:35:49;7.10;;;4.23;;
5791;SDS011;2922;53.482;10.006;2024-03-22T13:38:14;8.30;;;5.30;;
5791;SDS011;2922;53.482;10.006;2024-03-22T13:40:41;10.10;;;4.97;;
5791;SDS011;2922;53.482;10.006;2024-03-22T13:43:06;9.40;;;4.80;;
5791;SDS011;2922;53.482;10.006;2024-03-22T13:45:32;11.07;;;5.20;;
5791;SDS011;2922;53.482;10.006;2024-03-22T13:48:09;5.20;;;3.63;;
5791;SDS011;2922;53.482;10.006;2024-03-22T13:50:35;4.53;;;3.27;;
5791;SDS011;2922;53.482;10.006;2024-03-22T13:53:01;5.27;;;4.07;;
5791;SDS011;2922;53.482;10.006;2024-03-22T13:55:27;4.60;;;3.30;;
5791;SDS011;2922;53.482;10.006;2024-03-22T13:57:52;7.03;;;4.40;;
5791;SDS011;2922;53.482;10.006;2024-03-22T14:00:18;7.60;;;4.27;;
5791;SDS011;2922;53.482;10.006;2024-03-22T14:02:43;4.50;;;2.97;;
5791;SDS011;2922;53.482;10.006;2024-03-22T14:05:10;8.87;;;3.60;;
5791;SDS011;2922;53.482;10.006;2024-03-22T14:07:36;6.87;;;2.80;;
5791;SDS011;2922;53.482;10.006;2024-03-22T14:10:05;9.70;;;4.60;;
5791;SDS011;2922;53.482;10.006;2024-03-22T14:12:31;23.90;;;14.20;;
5791;SDS011;2922;53.482;10.006;2024-03-22T14:14:56;5.23;;;4.00;;
5791;SDS011;2922;53.482;10.006;2024-03-22T14:17:23;7.23;;;5.23;;
5791;SDS011;2922;53.482;10.006;2024-03-22T14:19:49;6.60;;;4.33;;
5791;SDS011;2922;53.482;10.006;2024-03-22T14:22:14;10.00;;;3.83;;
5791;SDS011;2922;53.482;10.006;2024-03-22T14:24:40;15.13;;;4.93;;
5791;SDS011;2922;53.482;10.006;2024-03-22T14:27:05;7.93;;;4.73;;
5791;SDS011;2922;53.482;10.006;2024-03-22T14:29:31;7.20;;;5.23;;
5791;SDS011;2922;53.482;10.006;2024-03-22T14:31:57;5.20;;;3.90;;
5791;SDS011;2922;53.482;10.006;2024-03-22T14:34:22;5.13;;;4.03;;
5791;SDS011;2922;53.482;10.006;2024-03-22T14:36:48;3.57;;;3.20;;